Time;durP1;ratioP1;P1;durP2;ratioP2;P2;SDS_P1;SDS_P2;PMS_P1;PMS_P2;Temp;Humidity;BMP_temperature;BMP_pressure;BME280_temperature;BME280_humidity;BME280_pressure;Samples;Min_cycle;Max_cycle;Signal;HPM_P1;HPM_P2
2022/11/02 02:46:19;;;;;;;4.72;2.22;;;;;;;9.93;69.72;97273.91;6214956;22;20024;-80
2022/11/02 02:48:50;;;;;;;3.53;2.00;;;;;;;9.90;69.53;97278.47;6213881;23;20023;-78
2022/11/02 02:51:22;;;;;;;3.20;1.83;;;;;;;9.92;69.92;97285.31;6215119;23;20024;-78
2022/11/02 02:53:57;;;;;;;2.15;1.30;;;;;;;9.93;69.54;97277.34;6214925;23;20044;-77
2022/11/02 02:56:28;;;;;;;5.70;2.15;;;;;;;9.86;69.66;97271.97;6215000;23;20075;-77
2022/11/02 02:59:00;;;;;;;5.00;1.92;;;;;;;9.82;69.89;97268.03;6214616;23;20087;-77
2022/11/02 03:01:30;;;;;;;2.30;1.80;;;;;;;9.80;69.94;97259.56;6214709;23;20095;-77
2022/11/02 03:03:58;;;;;;;5.75;1.80;;;;;;;9.80;70.13;97243.94;6214649;23;20023;-77
2022/11/02 03:06:29;;;;;;;4.70;1.70;;;;;;;9.83;70.13;97237.56;6214925;23;20458;-77
2022/11/02 03:09:07;;;;;;;4.65;1.70;;;;;;;9.80;70.26;97230.91;6214689;23;20031;-77
2022/11/02 03:11:42;;;;;;;5.47;2.65;;;;;;;9.75;70.21;97238.41;6214995;23;20103;-77
2022/11/02 03:14:24;;;;;;;2.92;1.83;;;;;;;9.74;70.75;97239.34;6214818;23;20039;-77
2022/11/02 03:17:10;;;;;;;2.22;1.27;;;;;;;9.72;70.39;97236.09;6214219;23;20031;-77
2022/11/02 03:19:49;;;;;;;4.15;1.70;;;;;;;9.72;70.41;97246.50;6213864;23;20040;-77
2022/11/02 03:22:24;;;;;;;7.97;1.92;;;;;;;9.77;70.57;97244.22;6214491;23;20096;-77
2022/11/02 03:24:59;;;;;;;5.03;1.92;;;;;;;9.80;69.76;97253.53;6214036;23;20059;-77
2022/11/02 03:27:36;;;;;;;3.20;1.70;;;;;;;9.83;70.25;97250.59;6214879;23;20032;-77
2022/11/02 03:30:08;;;;;;;4.13;2.10;;;;;;;9.86;69.79;97245.91;6214596;23;20049;-77
2022/11/02 03:32:44;;;;;;;5.32;1.95;;;;;;;9.87;69.38;97257.94;6214549;23;20028;-78
2022/11/02 03:35:17;;;;;;;3.65;1.60;;;;;;;9.90;69.65;97260.25;6214571;23;20193;-77
2022/11/02 03:37:49;;;;;;;5.32;1.98;;;;;;;9.89;69.16;97263.81;6214514;23;20028;-77
2022/11/02 03:40:19;;;;;;;;;;;;;;;9.88;69.04;97266.56;6216248;23;20021;-77
2022/11/02 03:42:50;;;;;;;4.15;1.67;;;;;;;9.77;68.88;97270.28;6216462;23;19919;-77
2022/11/02 03:45:20;;;;;;;4.13;2.05;;;;;;;9.69;69.14;97263.28;6216205;23;20024;-77
2022/11/02 03:47:57;;;;;;;2.38;1.65;;;;;;;9.66;69.53;97263.63;6216171;23;20025;-77
2022/11/02 03:50:26;;;;;;;4.30;1.92;;;;;;;9.63;69.35;97263.09;6216694;23;20028;-77
2022/11/02 03:52:58;;;;;;;1.85;1.55;;;;;;;9.61;69.58;97262.44;6215934;23;20017;-78
2022/11/02 03:55:30;;;;;;;3.00;1.20;;;;;;;9.63;69.67;97265.72;6216177;23;20023;-77
2022/11/02 03:57:59;;;;;;;;;;;;;;;9.68;69.50;97266.84;6216228;23;20024;-77
2022/11/02 04:00:32;;;;;;;3.10;1.70;;;;;;;9.64;69.36;97270.78;6216288;23;19915;-77
2022/11/02 04:03:03;;;;;;;2.20;1.20;;;;;;;9.63;69.72;97269.13;6215801;23;20457;-77
2022/11/02 04:05:32;;;;;;;5.15;2.30;;;;;;;9.65;69.63;97276.78;6215767;23;20017;-78
2022/11/02 04:16:13;;;;;;;4.05;1.42;;;;;;;9.78;69.73;97282.34;6166126;23;20020;-77
2022/11/02 04:21:27;;;;;;;2.90;1.50;;;;;;;9.79;69.35;97277.94;6216110;23;20024;-77
2022/11/02 04:26:40;;;;;;;2.58;1.35;;;;;;;9.85;69.41;97288.56;6215792;23;20025;-77
2022/11/02 04:29:08;;;;;;;4.32;1.23;;;;;;;9.93;69.59;97289.53;6215922;23;20024;-77
2022/11/02 04:31:36;;;;;;;4.85;1.75;;;;;;;9.95;69.27;97296.25;6215798;23;20021;-77
2022/11/02 04:34:04;;;;;;;6.75;2.00;;;;;;;9.97;69.40;97293.44;6216493;23;20039;-77
2022/11/02 04:36:32;;;;;;;6.72;1.48;;;;;;;9.99;69.17;97288.91;6214864;23;20025;-79
2022/11/02 04:38:58;;;;;;;4.05;1.20;;;;;;;10.00;69.24;97285.31;6215741;23;20479;-80
2022/11/02 04:41:41;;;;;;;2.17;1.60;;;;;;;9.96;69.30;97290.03;6215722;23;20111;-80
2022/11/02 04:44:10;;;;;;;8.13;1.65;;;;;;;9.96;69.55;97289.22;6215741;23;20023;-80
2022/11/02 04:46:40;;;;;;;3.17;1.38;;;;;;;9.97;69.79;97290.84;6214800;23;20013;-77
2022/11/02 04:49:11;;;;;;;6.03;1.45;;;;;;;9.97;69.99;97301.28;6215685;23;20019;-80
2022/11/02 04:51:39;;;;;;;4.53;1.30;;;;;;;9.99;70.07;97300.16;6215738;23;20051;-79
2022/11/02 04:54:15;;;;;;;3.90;1.60;;;;;;;10.05;70.02;97294.28;6216399;23;20503;-78
2022/11/02 04:56:42;;;;;;;3.88;1.50;;;;;;;10.09;69.59;97297.38;6216002;23;20095;-79
2022/11/02 04:59:10;;;;;;;4.22;1.67;;;;;;;10.08;69.55;97303.59;6215961;23;20027;-79
2022/11/02 05:01:38;;;;;;;6.13;1.42;;;;;;;10.07;69.84;97297.53;6214053;23;20021;-79
2022/11/02 05:04:05;;;;;;;4.10;1.65;;;;;;;10.08;69.87;97298.38;6215552;23;20020;-77
2022/11/02 05:06:34;;;;;;;5.13;1.73;;;;;;;10.10;69.91;97306.81;6214889;23;20490;-77
2022/11/02 05:09:02;;;;;;;3.58;1.40;;;;;;;10.11;69.72;97303.25;6214897;23;20020;-77
2022/11/02 05:11:29;;;;;;;2.67;1.20;;;;;;;10.11;69.63;97292.84;6215866;23;20025;-76
2022/11/02 05:13:57;;;;;;;3.75;1.55;;;;;;;10.15;69.66;97295.94;6223601;23;20024;-78
2022/11/02 05:16:24;;;;;;;4.50;1.40;;;;;;;10.17;69.53;97294.00;6224436;23;20468;-78
2022/11/02 05:18:52;;;;;;;2.58;1.23;;;;;;;10.18;69.65;97285.97;6215950;23;20020;-77
2022/11/02 05:21:19;;;;;;;2.42;1.60;;;;;;;10.19;69.45;97295.44;6215337;23;20031;-77
2022/11/02 05:23:48;;;;;;;4.18;1.52;;;;;;;10.20;69.30;97307.50;6215322;23;20046;-77
2022/11/02 05:26:16;;;;;;;6.35;2.70;;;;;;;10.22;69.39;97297.72;6215015;23;20364;-76
2022/11/02 05:28:43;;;;;;;4.97;2.67;;;;;;;10.22;69.10;97295.13;6215066;23;20103;-76
2022/11/02 05:31:11;;;;;;;6.10;2.40;;;;;;;10.19;69.46;97298.06;6215590;23;20027;-78
2022/11/02 05:33:38;;;;;;;7.03;2.22;;;;;;;10.17;69.17;97302.63;6216012;23;20044;-78
2022/11/02 05:36:07;;;;;;;3.08;2.08;;;;;;;10.14;69.09;97297.72;6214861;23;20017;-79
2022/11/02 05:38:34;;;;;;;4.00;2.30;;;;;;;10.10;68.99;97302.44;6214307;23;20024;-77
2022/11/02 05:41:03;;;;;;;5.05;2.38;;;;;;;10.07;69.19;97313.19;6214849;23;20023;-78
2022/11/02 05:43:31;;;;;;;5.57;2.17;;;;;;;10.04;69.19;97308.31;6217566;23;20026;-77
2022/11/02 05:46:00;;;;;;;6.03;1.92;;;;;;;10.01;69.30;97302.59;6214829;23;20027;-77
2022/11/02 05:48:33;;;;;;;6.90;2.42;;;;;;;9.99;69.46;97310.59;6216278;23;20099;-78
2022/11/02 05:51:04;;;;;;;8.48;2.67;;;;;;;9.96;69.44;97310.06;6215166;23;20023;-81
2022/11/02 05:53:36;;;;;;;6.28;2.22;;;;;;;9.96;69.30;97315.28;6215399;23;20356;-79
2022/11/02 05:56:07;;;;;;;3.72;2.00;;;;;;;9.95;69.29;97322.31;6215706;23;20067;-79
2022/11/02 05:58:36;;;;;;;5.38;1.95;;;;;;;9.94;69.32;97318.03;6215767;23;20025;-82
2022/11/02 06:01:06;;;;;;;4.93;1.90;;;;;;;9.95;69.46;97321.47;6215122;23;20484;-81
2022/11/02 06:03:36;;;;;;;16.23;2.88;;;;;;;9.94;69.16;97319.84;6215312;23;20103;-82
2022/11/02 06:06:06;;;;;;;9.20;2.80;;;;;;;9.89;69.21;97321.13;6214955;23;20465;-81
2022/11/02 06:08:37;;;;;;;7.90;2.65;;;;;;;9.89;69.12;97325.53;6215033;23;20107;-79
2022/11/02 06:11:13;;;;;;;8.90;3.58;;;;;;;9.88;69.31;97329.94;6216643;23;20086;-80
2022/11/02 06:13:57;;;;;;;11.50;3.47;;;;;;;9.90;69.27;97321.94;6220723;23;20028;-80
2022/11/02 06:19:26;;;;;;;17.43;4.70;;;;;;;9.96;68.76;97333.53;6215790;22;20282;-81
2022/11/02 06:21:54;;;;;;;15.38;4.40;;;;;;;9.95;68.95;97330.13;6217762;23;20016;-80
2022/11/02 06:24:22;;;;;;;15.32;4.57;;;;;;;9.95;68.88;97334.50;6218975;23;20029;-80
2022/11/02 06:26:52;;;;;;;11.60;4.57;;;;;;;9.97;68.73;97337.75;6216489;23;20024;-80
2022/11/02 06:29:23;;;;;;;13.25;4.45;;;;;;;9.97;68.68;97337.75;6217536;23;20021;-80
2022/11/02 06:31:57;;;;;;;14.95;4.57;;;;;;;9.98;68.44;97335.00;6225187;23;20068;-79
2022/11/02 06:34:25;;;;;;;11.60;4.70;;;;;;;10.00;68.50;97327.84;6214461;23;20095;-78
2022/11/02 06:36:53;;;;;;;9.48;4.25;;;;;;;10.02;68.34;97335.50;6214766;23;20024;-78
2022/11/02 06:39:21;;;;;;;13.10;4.07;;;;;;;10.03;68.18;97334.53;6214911;23;20017;-78
2022/11/02 06:41:49;;;;;;;12.63;4.47;;;;;;;10.07;68.99;97348.88;6215602;23;20080;-78
2022/11/02 06:44:18;;;;;;;13.45;4.38;;;;;;;10.13;68.93;97343.00;6216831;23;20075;-81
2022/11/02 06:49:29;;;;;;;9.65;3.70;;;;;;;10.27;68.23;97350.19;6215902;22;20027;-79
2022/11/02 06:51:57;;;;;;;10.68;3.72;;;;;;;10.35;67.98;97357.25;6216181;23;20027;-80
2022/11/02 06:54:25;;;;;;;8.38;3.90;;;;;;;10.45;67.64;97357.09;6216907;23;20411;-80
2022/11/02 06:56:53;;;;;;;9.63;4.13;;;;;;;10.55;67.44;97362.97;6215482;23;20013;-79
2022/11/02 06:59:24;;;;;;;8.07;3.97;;;;;;;10.66;67.29;97374.88;6216122;23;20021;-79
2022/11/02 07:05:39;;;;;;;13.23;4.50;;;;;;;10.90;66.79;97381.88;6215466;23;20108;-80
2022/11/02 07:08:07;;;;;;;11.43;4.05;;;;;;;10.95;66.75;97387.41;6215909;23;20108;-80
2022/11/02 07:11:05;;;;;;;6.47;3.53;;;;;;;11.02;67.08;97396.25;6215949;23;20024;-79
2022/11/02 07:13:33;;;;;;;9.85;3.40;;;;;;;11.11;66.71;97394.44;6216130;23;20083;-79
2022/11/02 07:16:02;;;;;;;14.60;4.13;;;;;;;11.17;66.56;97398.16;6217646;23;20100;-79
2022/11/02 07:18:29;;;;;;;12.45;3.83;;;;;;;11.23;66.40;97398.31;6218169;23;20016;-80
2022/11/02 07:21:01;;;;;;;8.77;4.18;;;;;;;11.30;66.04;97407.13;6226936;23;20103;-80
2022/11/02 07:23:29;;;;;;;10.60;4.22;;;;;;;11.37;65.68;97411.69;6226304;23;20025;-79
2022/11/02 07:28:45;;;;;;;15.98;6.00;;;;;;;11.54;65.49;97414.09;6220961;22;20020;-80
2022/11/02 07:31:15;;;;;;;11.50;5.43;;;;;;;11.63;65.31;97419.28;6218383;23;20048;-79
2022/11/02 07:33:43;;;;;;;14.60;4.53;;;;;;;11.73;65.07;97420.72;6217769;23;20095;-80
2022/11/02 07:36:11;;;;;;;10.27;3.78;;;;;;;11.83;64.73;97419.69;6217041;23;20016;-80
2022/11/02 07:38:38;;;;;;;9.75;4.07;;;;;;;11.93;64.89;97426.38;6217010;23;20016;-80
2022/11/02 07:41:06;;;;;;;10.35;3.60;;;;;;;12.06;64.53;97425.84;6216932;23;20023;-80
2022/11/02 07:43:34;;;;;;;8.50;4.18;;;;;;;12.22;64.60;97424.13;6216929;23;20040;-80
2022/11/02 07:46:08;;;;;;;7.88;2.17;;;;;;;12.36;64.37;97429.47;6216488;23;20464;-78
2022/11/02 07:48:37;;;;;;;7.90;2.75;;;;;;;12.52;64.11;97428.53;6215615;23;20068;-78
2022/11/02 07:51:10;;;;;;;7.43;3.13;;;;;;;12.65;64.03;97430.59;6216123;23;20013;-78
2022/11/02 07:53:40;;;;;;;8.45;3.17;;;;;;;12.73;63.50;97433.16;6216196;23;20532;-78
2022/11/02 07:56:08;;;;;;;12.32;2.85;;;;;;;12.79;63.31;97429.03;6215526;23;20342;-78
2022/11/02 07:58:36;;;;;;;7.57;2.63;;;;;;;12.88;62.77;97435.00;6215857;23;20032;-78
2022/11/02 08:01:04;;;;;;;7.50;1.98;;;;;;;12.97;63.06;97433.97;6216699;23;20023;-78
2022/11/02 08:03:32;;;;;;;3.03;1.42;;;;;;;13.06;62.52;97435.50;6228211;23;20076;-79
2022/11/02 08:06:02;;;;;;;4.70;1.60;;;;;;;13.15;61.90;97442.31;6228928;23;20017;-79
2022/11/02 08:08:30;;;;;;;5.05;1.73;;;;;;;13.25;62.22;97433.38;6217237;23;20024;-78
2022/11/02 08:11:05;;;;;;;9.20;1.63;;;;;;;13.32;61.98;97436.97;6216006;23;20024;-78
2022/11/02 08:13:33;;;;;;;4.18;1.17;;;;;;;13.38;61.13;97434.44;6216452;23;20027;-78
2022/11/02 08:16:01;;;;;;;7.43;1.20;;;;;;;13.43;61.13;97430.47;6215773;23;20039;-78
2022/11/02 08:18:29;;;;;;;11.13;2.22;;;;;;;13.49;61.04;97432.34;6215594;23;20556;-79
2022/11/02 08:21:03;;;;;;;4.40;1.50;;;;;;;13.58;61.02;97447.84;6216517;23;20100;-79
2022/11/02 08:23:30;;;;;;;3.45;1.10;;;;;;;13.68;60.82;97431.03;6215961;23;20021;-80
2022/11/02 08:25:59;;;;;;;6.50;1.40;;;;;;;13.77;60.56;97436.00;6215966;23;20020;-79
2022/11/02 08:28:30;;;;;;;6.88;2.00;;;;;;;13.87;60.53;97435.72;6216290;23;20350;-80
2022/11/02 08:30:59;;;;;;;4.43;1.55;;;;;;;14.05;59.73;97443.19;6216773;23;20464;-80
2022/11/02 08:33:27;;;;;;;2.70;0.90;;;;;;;14.19;59.06;97441.53;6216915;23;20021;-80
2022/11/02 08:36:00;;;;;;;5.40;1.50;;;;;;;14.31;58.94;97447.97;6216816;23;20019;-79
2022/11/02 08:38:29;;;;;;;7.03;1.45;;;;;;;14.40;58.80;97444.22;6216897;23;20480;-80
2022/11/02 08:40:57;;;;;;;3.38;1.42;;;;;;;14.45;58.49;97453.34;6216912;23;20021;-80
2022/11/02 08:43:25;;;;;;;10.13;1.90;;;;;;;14.46;58.34;97452.38;6216939;23;20028;-81
2022/11/02 08:48:25;;;;;;;5.30;1.70;;;;;;;14.44;58.80;97452.53;6246592;23;20020;-82
2022/11/02 08:50:54;;;;;;;5.50;1.80;;;;;;;14.37;58.89;97467.41;6248205;23;20069;-82
2022/11/02 08:53:22;;;;;;;5.35;1.55;;;;;;;14.31;59.59;97466.31;6246526;23;20046;-82
2022/11/02 08:55:53;;;;;;;4.32;1.65;;;;;;;14.25;59.06;97474.13;6248545;22;20348;-83
2022/11/02 08:58:21;;;;;;;5.43;1.55;;;;;;;14.21;59.37;97474.50;6240749;23;20050;-83
2022/11/02 09:00:52;;;;;;;6.90;1.95;;;;;;;14.18;59.57;97474.03;6243333;23;20059;-83
2022/11/02 09:03:23;;;;;;;5.35;1.88;;;;;;;14.17;59.71;97482.94;6247524;23;20066;-82
2022/11/02 09:05:58;;;;;;;5.05;1.80;;;;;;;14.15;59.67;97488.34;6245919;22;20078;-82
2022/11/02 09:08:26;;;;;;;2.88;1.52;;;;;;;14.13;59.75;97485.09;6245937;23;20067;-82
2022/11/02 09:11:00;;;;;;;5.65;1.90;;;;;;;14.14;59.42;97485.91;6245483;23;20044;-82
2022/11/02 09:13:29;;;;;;;3.58;1.05;;;;;;;14.12;59.49;97480.00;6243928;23;20095;-82
2022/11/02 09:15:58;;;;;;;5.80;1.33;;;;;;;14.14;60.11;97483.28;6241357;22;20024;-82
2022/11/02 09:18:26;;;;;;;4.75;1.20;;;;;;;14.20;59.67;97482.53;6242558;23;20020;-81
2022/11/02 09:20:55;;;;;;;3.17;0.90;;;;;;;14.31;59.45;97487.31;6248712;23;20034;-82
2022/11/02 09:23:23;;;;;;;2.92;1.10;;;;;;;14.46;59.63;97487.31;6247972;23;20016;-82
2022/11/02 09:25:51;;;;;;;3.78;1.67;;;;;;;14.81;58.79;97485.69;6246987;22;20407;-81
2022/11/02 09:28:21;;;;;;;4.25;1.38;;;;;;;15.37;57.60;97494.66;6246272;23;20012;-82
2022/11/02 09:30:49;;;;;;;7.38;2.00;;;;;;;15.71;56.50;97490.47;6246706;23;20419;-82
2022/11/02 09:33:18;;;;;;;7.07;1.88;;;;;;;16.14;55.07;97504.34;6247620;23;20405;-82
2022/11/02 09:35:50;;;;;;;6.32;1.60;;;;;;;16.23;54.29;97495.25;6247003;23;20411;-82
2022/11/02 09:38:19;;;;;;;3.85;1.05;;;;;;;16.06;54.88;97500.03;6247441;23;20024;-82
2022/11/02 09:41:00;;;;;;;3.58;1.30;;;;;;;16.23;54.77;97499.72;6247875;23;20483;-82
2022/11/02 09:43:58;;;;;;;3.10;1.23;;;;;;;16.55;53.14;97502.66;6245817;23;20103;-82
2022/11/02 09:46:31;;;;;;;5.05;2.05;;;;;;;16.96;53.52;97488.63;6245227;22;20016;-82
2022/11/02 09:49:03;;;;;;;4.50;1.75;;;;;;;17.86;51.21;97500.44;6247094;23;20020;-82
2022/11/02 09:51:37;;;;;;;12.98;2.97;;;;;;;18.30;49.30;97500.69;6249011;23;20012;-82
2022/11/02 09:54:21;;;;;;;4.85;1.05;;;;;;;18.65;48.03;97502.97;6252520;23;20103;-82
2022/11/02 09:56:51;;;;;;;2.72;1.27;;;;;;;18.63;48.29;97505.84;6253076;22;20016;-83
2022/11/02 09:59:48;;;;;;;3.55;1.20;;;;;;;18.38;48.75;97508.38;6257145;23;20039;-82
2022/11/02 10:02:31;;;;;;;3.08;1.00;;;;;;;18.00;49.16;97501.19;6256156;22;20058;-82
2022/11/02 10:05:20;;;;;;;5.82;1.38;;;;;;;17.98;49.83;97505.88;6248139;23;20022;-82
2022/11/02 10:08:14;;;;;;;3.63;1.60;;;;;;;18.20;49.64;97501.16;6254623;22;20042;-82
2022/11/02 10:10:54;;;;;;;2.80;0.75;;;;;;;18.53;48.86;97497.56;6252590;23;20032;-82
2022/11/02 10:28:42;;;;;;;3.42;1.10;;;;;;;18.80;48.52;97506.19;6169301;23;20052;-82
2022/11/02 10:31:38;;;;;;;3.60;1.20;;;;;;;18.86;47.83;97509.81;6162325;23;20508;-81
2022/11/02 10:34:46;;;;;;;6.15;1.50;;;;;;;19.05;47.93;97503.63;6140374;23;20417;-81
2022/11/02 10:37:53;;;;;;;4.38;1.33;;;;;;;19.27;47.47;97501.41;6193229;23;20024;-81
2022/11/02 10:40:42;;;;;;;6.30;1.80;;;;;;;19.28;46.78;97513.59;6215741;23;20092;-81
2022/11/02 10:43:26;;;;;;;7.45;2.08;;;;;;;19.18;46.44;97501.91;6216983;23;20471;-82
2022/11/02 10:46:17;;;;;;;5.10;1.25;;;;;;;18.84;47.39;97511.88;6216718;23;20028;-81
2022/11/02 10:48:55;;;;;;;4.32;1.17;;;;;;;18.60;47.45;97508.09;6219426;22;20075;-81
2022/11/02 10:51:26;;;;;;;5.13;1.83;;;;;;;18.75;48.41;97500.72;6240459;23;20036;-81
2022/11/02 10:56:34;;;;;;;5.95;1.50;;;;;;;19.27;46.59;97497.97;6210400;23;20311;-81
2022/11/02 10:59:22;;;;;;;4.35;1.20;;;;;;;19.13;46.95;97499.88;6211613;23;20482;-79
2022/11/02 11:38:48;;;;;;;4.65;1.20;;;;;;;18.85;46.52;97485.22;6232282;22;20033;-80
2022/11/02 12:06:06;;;;;;;6.28;1.25;;;;;;;19.72;44.52;97469.53;6217505;22;20034;-79
2022/11/02 12:08:51;;;;;;;4.47;1.25;;;;;;;19.41;46.15;97466.91;6182875;23;20040;-78
2022/11/02 12:11:31;;;;;;;5.47;1.75;;;;;;;19.15;46.48;97466.09;6184896;23;20042;-78
2022/11/02 12:14:13;;;;;;;3.25;1.13;;;;;;;18.92;46.93;97459.56;6185629;23;20032;-78
2022/11/02 12:16:59;;;;;;;5.00;1.20;;;;;;;18.75;47.16;97463.69;6192750;23;20026;-78
2022/11/02 12:44:55;;;;;;;5.30;1.30;;;;;;;18.09;47.55;97441.06;6239081;22;20040;-78
2022/11/02 12:51:45;;;;;;;4.35;1.20;;;;;;;18.02;47.96;97432.38;6240094;22;20028;-80
2022/11/02 12:54:33;;;;;;;5.13;1.20;;;;;;;17.98;47.89;97431.16;6233775;23;20017;-82
2022/11/02 13:00:07;;;;;;;5.70;1.20;;;;;;;17.90;48.42;97418.97;6250705;22;20046;-81
2022/11/02 13:02:47;;;;;;;2.97;0.95;;;;;;;17.90;48.21;97416.34;6248385;23;20090;-83
2022/11/02 13:05:20;;;;;;;4.80;1.02;;;;;;;17.89;47.95;97426.09;6246554;23;20403;-82
2022/11/02 13:07:55;;;;;;;3.03;0.93;;;;;;;17.90;48.26;97421.63;6224802;23;20051;-82
2022/11/02 13:10:28;;;;;;;10.88;1.85;;;;;;;17.89;47.53;97418.19;6215532;23;20021;-82
2022/11/02 13:13:02;;;;;;;9.20;1.48;;;;;;;17.87;47.21;97417.56;6215355;23;20013;-82
2022/11/02 13:15:34;;;;;;;6.18;1.73;;;;;;;17.87;47.88;97414.94;6216275;23;20025;-81
2022/11/02 13:18:11;;;;;;;4.40;1.80;;;;;;;17.87;47.68;97417.56;6215420;23;20080;-82
2022/11/02 13:20:44;;;;;;;5.97;1.73;;;;;;;17.84;47.83;97428.56;6216545;23;20080;-82
2022/11/02 13:23:21;;;;;;;4.80;1.17;;;;;;;17.83;47.33;97415.56;6216836;23;20012;-82
2022/11/02 13:25:57;;;;;;;5.63;1.77;;;;;;;17.84;47.46;97411.91;6216211;23;20025;-80
2022/11/02 13:28:34;;;;;;;5.35;1.50;;;;;;;17.84;47.09;97407.44;6219054;23;20056;-80
2022/11/02 13:31:06;;;;;;;3.65;1.08;;;;;;;17.83;47.25;97400.53;6219168;23;20027;-81
2022/11/02 13:33:43;;;;;;;5.00;1.30;;;;;;;17.80;47.46;97405.38;6222994;23;20021;-82
2022/11/02 13:36:12;;;;;;;3.58;1.45;;;;;;;17.73;47.61;97399.31;6210472;23;20099;-82
2022/11/02 13:38:46;;;;;;;5.00;1.25;;;;;;;17.66;47.59;97400.13;6215837;23;20020;-80
2022/11/02 13:41:32;;;;;;;3.25;0.85;;;;;;;17.66;47.67;97400.13;6218081;23;20055;-80
2022/11/02 13:44:20;;;;;;;6.45;1.85;;;;;;;17.65;47.83;97403.81;6216182;23;20028;-80
2022/11/02 13:47:23;;;;;;;5.93;0.98;;;;;;;17.59;48.00;97402.00;6215892;23;20484;-82
2022/11/02 13:49:51;;;;;;;;;;;;;;;17.58;48.35;97403.03;6217189;23;20024;-83
2022/11/02 13:52:24;;;;;;;4.00;1.25;;;;;;;17.54;48.56;97406.28;6215294;23;19920;-83
2022/11/02 13:54:53;;;;;;;;;;;;;;;17.54;48.57;97401.81;6215006;23;20016;-82
2022/11/02 13:57:36;;;;;;;4.18;1.30;;;;;;;17.48;48.85;97392.88;6213390;23;19991;-82
2022/11/02 14:00:08;;;;;;;3.78;1.23;;;;;;;17.45;48.71;97388.03;6214884;23;20031;-82
2022/11/02 14:02:41;;;;;;;3.47;1.20;;;;;;;17.42;48.34;97393.69;6215013;23;20372;-79
2022/11/02 14:05:20;;;;;;;7.43;2.05;;;;;;;17.41;48.50;97397.38;6217343;23;20028;-80
2022/11/02 14:07:49;;;;;;;4.97;1.70;;;;;;;17.43;48.67;97402.44;6216710;23;20363;-80
2022/11/02 14:10:18;;;;;;;6.55;1.40;;;;;;;17.41;48.56;97402.63;6217035;23;20020;-80
2022/11/02 14:12:48;;;;;;;7.35;1.60;;;;;;;17.42;48.59;97392.91;6217288;23;20027;-79
2022/11/02 14:16:07;;;;;;;4.93;1.30;;;;;;;17.43;48.63;97402.44;6229462;23;20047;-80
2022/11/02 14:18:52;;;;;;;4.78;1.30;;;;;;;17.41;48.53;97407.13;6231275;23;20043;-80
2022/11/02 14:21:48;;;;;;;5.72;1.40;;;;;;;17.43;48.43;97410.34;6238098;23;20017;-82
2022/11/02 14:24:44;;;;;;;;;;;;;;;17.46;48.53;97409.94;6235634;23;20059;-80
2022/11/02 14:27:34;;;;;;;4.93;1.42;;;;;;;17.40;47.96;97402.84;6232717;23;19915;-79
2022/11/02 14:30:44;;;;;;;5.18;1.50;;;;;;;17.36;47.81;97398.97;6234965;23;20127;-79
2022/11/02 14:37:08;;;;;;;3.72;1.98;;;;;;;17.29;47.63;97405.09;6231927;23;20025;-83
2022/11/02 14:40:00;;;;;;;5.28;2.00;;;;;;;17.26;47.78;97404.69;6237742;23;20020;-83
2022/11/02 14:45:54;;;;;;;6.22;1.27;;;;;;;17.16;47.51;97405.09;6272332;22;20543;-81
2022/11/02 14:48:30;;;;;;;5.28;1.20;;;;;;;17.15;48.06;97410.59;6243187;22;20005;-82
2022/11/02 14:51:06;;;;;;;2.40;0.90;;;;;;;17.15;48.26;97408.75;6236684;23;20021;-80
2022/11/02 14:53:43;;;;;;;3.65;1.10;;;;;;;17.16;48.19;97402.44;6239685;23;20017;-79
2022/11/02 14:56:13;;;;;;;4.65;1.25;;;;;;;17.16;48.30;97399.81;6232279;23;20047;-81
2022/11/02 15:02:00;;;;;;;6.00;1.17;;;;;;;17.12;48.74;97390.72;6234157;23;20456;-80
2022/11/02 15:04:50;;;;;;;4.43;1.10;;;;;;;17.05;48.43;97393.34;6237395;23;20031;-80
2022/11/02 15:07:34;;;;;;;6.47;1.25;;;;;;;16.99;48.61;97394.16;6235283;23;20016;-81
2022/11/02 15:10:10;;;;;;;7.63;1.67;;;;;;;16.93;48.89;97384.44;6239777;23;20005;-81
2022/11/02 15:12:48;;;;;;;4.43;1.27;;;;;;;16.87;49.01;97378.13;6242307;22;20024;-81
2022/11/02 15:15:32;;;;;;;4.88;1.42;;;;;;;16.83;49.67;97387.44;6235526;23;20372;-81
2022/11/02 15:18:26;;;;;;;4.60;1.60;;;;;;;16.80;49.62;97387.88;6226160;23;20066;-81
2022/11/02 15:21:25;;;;;;;9.00;1.73;;;;;;;16.78;49.28;97373.25;6232941;23;20461;-81
2022/11/02 15:24:25;;;;;;;3.70;1.40;;;;;;;16.72;49.60;97372.22;6231387;23;20051;-81
2022/11/02 15:27:03;;;;;;;2.75;1.25;;;;;;;16.66;49.71;97370.38;6236196;23;20052;-81
2022/11/02 15:29:45;;;;;;;3.45;1.10;;;;;;;16.61;50.10;97381.53;6233216;23;20334;-81
2022/11/02 15:32:22;;;;;;;6.50;1.83;;;;;;;16.56;50.18;97385.78;6233161;23;20024;-79
2022/11/02 15:35:00;;;;;;;8.05;1.90;;;;;;;16.46;50.83;97387.00;6226578;23;20020;-81
2022/11/02 15:37:39;;;;;;;6.47;2.72;;;;;;;16.42;50.87;97380.50;6233038;23;20043;-81
2022/11/02 15:43:59;;;;;;;4.00;1.73;;;;;;;16.29;51.46;97369.94;6236703;23;20020;-81
2022/11/02 15:46:49;;;;;;;4.57;1.38;;;;;;;16.21;51.62;97375.38;6237340;23;20017;-79
2022/11/02 15:49:34;;;;;;;12.55;2.28;;;;;;;16.11;51.65;97372.31;6235693;23;20071;-81
2022/11/02 15:52:28;;;;;;;5.80;2.10;;;;;;;16.03;52.48;97371.47;6235005;23;20020;-81
2022/11/02 15:55:46;;;;;;;6.80;2.00;;;;;;;15.96;53.01;97378.53;6231832;23;20021;-81
2022/11/02 15:58:31;;;;;;;7.22;2.58;;;;;;;15.87;53.01;97377.06;6234493;23;20021;-80
2022/11/02 16:01:18;;;;;;;8.02;2.95;;;;;;;15.73;53.50;97367.50;6236048;23;20027;-79
2022/11/02 16:06:44;;;;;;;11.85;3.33;;;;;;;15.51;54.30;97374.66;6230365;23;20453;-81
2022/11/02 16:09:32;;;;;;;11.57;3.28;;;;;;;15.40;54.96;97370.75;6231079;23;20019;-81
2022/11/02 16:12:12;;;;;;;7.40;3.63;;;;;;;15.28;54.59;97374.91;6223294;23;20012;-81
2022/11/02 16:14:40;;;;;;;16.42;5.07;;;;;;;15.11;54.71;97369.13;6223516;23;20024;-81
2022/11/02 16:17:22;;;;;;;13.13;5.13;;;;;;;14.93;55.42;97370.41;6230427;23;20064;-79
2022/11/02 16:22:29;;;;;;;16.88;8.40;;;;;;;14.65;56.18;97370.41;6225327;23;20242;-81
2022/11/02 16:25:16;;;;;;;11.80;5.60;;;;;;;14.52;56.05;97370.22;6209960;23;20017;-82
2022/11/02 16:27:51;;;;;;;15.43;4.80;;;;;;;14.38;55.86;97359.59;6235148;22;20015;-83
2022/11/02 16:30:28;;;;;;;10.68;3.72;;;;;;;14.28;56.25;97358.28;6230678;22;20356;-80
2022/11/02 16:33:01;;;;;;;10.75;3.42;;;;;;;14.20;56.36;97369.72;6231765;23;20000;-80
2022/11/02 16:35:42;;;;;;;7.00;3.03;;;;;;;14.10;56.71;97377.06;6231291;23;20080;-81
2022/11/02 17:03:41;;;;;;;4.88;1.98;;;;;;;13.03;58.61;97359.94;6223664;22;20012;-79
2022/11/02 17:18:27;;;;;;;6.30;2.40;;;;;;;12.70;60.07;97364.63;6249447;22;20015;-79
2022/11/02 17:21:31;;;;;;;8.50;2.63;;;;;;;12.64;60.37;97360.91;6265099;23;20071;-81
2022/11/02 17:24:00;;;;;;;9.48;3.38;;;;;;;12.57;60.36;97366.03;6260955;23;20024;-81
2022/11/02 17:26:31;;;;;;;10.23;3.00;;;;;;;12.54;60.62;97366.38;6248365;22;20048;-81
2022/11/02 17:31:55;;;;;;;7.53;3.20;;;;;;;12.50;61.27;97359.06;6225800;22;19916;-81
2022/11/02 17:36:59;;;;;;;10.13;4.30;;;;;;;12.44;61.03;97357.97;6226766;22;20016;-80
2022/11/02 19:24:22;;;;;;;17.00;7.07;;;;;;;10.88;64.96;97275.03;6221549;22;20025;-79
2022/11/02 19:26:50;;;;;;;17.10;7.80;;;;;;;10.87;65.07;97270.00;6230111;23;20076;-80
2022/11/02 19:29:33;;;;;;;15.10;6.93;;;;;;;10.86;65.11;97277.00;6234071;23;20076;-80
2022/11/02 19:32:08;;;;;;;18.20;6.80;;;;;;;10.84;65.35;97275.53;6218754;23;20075;-80
2022/11/02 19:34:37;;;;;;;16.33;5.72;;;;;;;10.85;65.34;97271.97;6219346;23;20025;-79
2022/11/02 19:37:06;;;;;;;14.07;5.95;;;;;;;10.85;65.27;97274.56;6218116;23;20075;-79
2022/11/02 19:39:36;;;;;;;15.60;6.45;;;;;;;10.86;65.31;97270.97;6218017;23;20540;-80
2022/11/02 19:42:06;;;;;;;17.52;6.65;;;;;;;10.82;65.16;97267.03;6218311;23;20511;-80
2022/11/02 19:44:34;;;;;;;13.55;6.05;;;;;;;10.80;65.42;97271.63;6218443;23;20031;-80
2022/11/02 19:47:10;;;;;;;17.23;6.70;;;;;;;10.77;65.22;97277.19;6218477;23;20025;-80
2022/11/02 19:49:39;;;;;;;17.20;7.03;;;;;;;10.74;65.26;97277.53;6218320;23;20032;-82
2022/11/02 19:52:07;;;;;;;17.25;6.95;;;;;;;10.71;65.38;97263.00;6216583;23;20024;-82
2022/11/02 19:54:37;;;;;;;17.45;7.65;;;;;;;10.69;65.40;97284.06;6217224;23;20325;-82
2022/11/02 19:57:05;;;;;;;15.93;8.35;;;;;;;10.65;65.48;97272.31;6216315;23;20020;-82
2022/11/02 19:59:34;;;;;;;16.85;8.55;;;;;;;10.63;65.39;97271.66;6217465;23;20479;-82
2022/11/02 20:02:02;;;;;;;17.42;8.02;;;;;;;10.59;65.48;97269.56;6216864;23;20017;-82